Time;durP1;ratioP1;P1;durP2;ratioP2;P2;SDS_P1;SDS_P2;PMS_P1;PMS_P2;Temp;Humidity;BMP_temperature;BMP_pressure;BME280_temperature;BME280_humidity;BME280_pressure;Samples;Min_cycle;Max_cycle;Signal;HPM_P1;HPM_P2
2022/03/14 00:02:42;;;;;;;2.38;1.90;;;;;;;-148.93;100.00;62180.91;20905384;28;20037;-78
2022/03/14 00:12:48;;;;;;;2.50;1.90;;;;;;;-148.93;100.00;62180.91;20904745;28;20067;-78
2022/03/14 00:22:50;;;;;;;;;;;;;;;-148.93;100.00;62180.91;20901007;28;20048;-79
2022/03/14 00:32:52;;;;;;;2.13;1.60;;;;;;;-148.93;100.00;62180.91;20849661;28;20401;-78
2022/03/14 00:42:54;;;;;;;1.98;1.55;;;;;;;-148.93;100.00;62180.91;20892470;28;20048;-79
2022/03/14 00:52:56;;;;;;;1.83;1.30;;;;;;;-148.93;100.00;62180.91;20871312;28;20044;-79
2022/03/14 01:02:59;;;;;;;2.17;1.58;;;;;;;-148.93;100.00;62180.91;20924300;28;20041;-79
2022/03/14 01:13:06;;;;;;;1.63;1.30;;;;;;;-148.93;100.00;62180.91;20901314;28;20057;-78
2022/03/14 01:23:08;;;;;;;1.75;1.38;;;;;;;-148.93;100.00;62180.91;20889640;28;20114;-78
2022/03/14 01:33:13;;;;;;;2.97;1.40;;;;;;;-148.93;100.00;62180.91;20883748;28;20503;-78
2022/03/14 01:43:16;;;;;;;2.83;1.73;;;;;;;-148.93;100.00;62180.91;20882089;28;20045;-78
2022/03/14 01:53:19;;;;;;;3.17;1.40;;;;;;;-148.93;100.00;62180.91;20925856;28;20139;-78
2022/03/14 02:03:21;;;;;;;1.58;1.20;;;;;;;-148.93;100.00;62180.91;20886188;28;20048;-78
2022/03/14 02:13:23;;;;;;;1.02;0.93;;;;;;;-148.93;100.00;62180.91;20878448;28;20511;-78
2022/03/14 02:23:25;;;;;;;1.30;1.00;;;;;;;-148.93;100.00;62180.91;20899764;28;20049;-78
2022/03/14 02:33:27;;;;;;;1.95;1.30;;;;;;;-148.93;100.00;62180.91;20891691;28;20067;-78
2022/03/14 02:43:29;;;;;;;1.45;1.17;;;;;;;-148.93;100.00;62180.91;20902550;28;20516;-78
2022/03/14 02:53:31;;;;;;;1.90;1.25;;;;;;;-148.93;100.00;62180.91;20930322;28;20045;-78
2022/03/14 03:03:34;;;;;;;1.13;0.90;;;;;;;-148.93;100.00;62180.91;20968359;28;20048;-78
2022/03/14 03:13:41;;;;;;;1.20;1.10;;;;;;;-148.93;100.00;62180.91;20913344;28;20045;-78
2022/03/14 03:23:43;;;;;;;;;;;;;;;-148.93;100.00;62180.91;21362357;22;20053;-78
2022/03/14 03:33:53;;;;;;;1.13;1.00;;;;;;;-148.93;100.00;62180.91;20801225;28;19921;-78
2022/03/14 03:43:54;;;;;;;0.85;0.80;;;;;;;-148.93;100.00;62180.91;20803724;28;20059;-78
2022/03/14 03:53:56;;;;;;;0.98;0.82;;;;;;;-148.93;100.00;62180.91;20832248;28;20052;-78
2022/03/14 04:03:59;;;;;;;1.17;1.02;;;;;;;-148.93;100.00;62180.91;20831928;28;20060;-79
2022/03/14 04:14:02;;;;;;;1.00;0.90;;;;;;;-148.93;100.00;62180.91;20813475;28;20136;-78
2022/03/14 04:24:06;;;;;;;0.88;0.80;;;;;;;-148.93;100.00;62180.91;20794058;28;20060;-78
2022/03/14 04:34:08;;;;;;;1.00;0.90;;;;;;;-148.93;100.00;62180.91;20769261;28;20092;-78
2022/03/14 04:44:10;;;;;;;1.13;1.00;;;;;;;-148.93;100.00;62180.91;20782561;28;20400;-78
2022/03/14 04:54:12;;;;;;;1.73;0.88;;;;;;;-148.93;100.00;62180.91;20729957;28;20402;-78
2022/03/14 05:04:15;;;;;;;1.08;0.80;;;;;;;-148.93;100.00;62180.91;20747468;28;20050;-76
2022/03/14 05:14:17;;;;;;;1.05;0.85;;;;;;;-148.93;100.00;62180.91;20750010;28;20065;-79
2022/03/14 05:24:19;;;;;;;1.13;0.70;;;;;;;-148.93;100.00;62180.91;20794903;28;20053;-79
2022/03/14 05:34:20;;;;;;;0.73;0.70;;;;;;;-148.93;100.00;62180.91;20824745;28;20059;-79
2022/03/14 05:44:22;;;;;;;1.15;0.90;;;;;;;-148.93;100.00;62180.91;20823436;28;20399;-79
2022/03/14 05:54:24;;;;;;;0.77;0.75;;;;;;;-148.93;100.00;62180.91;20822562;28;20046;-79
2022/03/14 06:04:26;;;;;;;0.60;0.60;;;;;;;-148.93;100.00;62180.91;20821992;28;20050;-78
2022/03/14 06:14:28;;;;;;;0.70;0.68;;;;;;;-148.93;100.00;62180.91;20803628;28;20402;-79
2022/03/14 06:24:30;;;;;;;1.02;0.68;;;;;;;-148.93;100.00;62180.91;20772687;28;20081;-83
2022/03/14 06:34:33;;;;;;;0.60;0.60;;;;;;;-148.93;100.00;62180.91;20739168;28;20050;-81
2022/03/14 06:44:38;;;;;;;0.63;0.63;;;;;;;-148.93;100.00;62180.91;20636485;28;20060;-81
2022/03/14 06:54:40;;;;;;;0.50;0.50;;;;;;;-148.93;100.00;62180.91;20742554;28;20517;-81
2022/03/14 07:04:42;;;;;;;0.80;0.68;;;;;;;-148.93;100.00;62180.91;20774387;28;20053;-81
2022/03/14 07:14:44;;;;;;;0.98;0.85;;;;;;;-148.93;100.00;62180.91;20720997;28;20077;-81
2022/03/14 07:24:47;;;;;;;1.23;0.60;;;;;;;-148.93;100.00;62180.91;20806392;28;20393;-80
2022/03/14 07:34:49;;;;;;;1.10;0.70;;;;;;;-148.93;100.00;62180.91;20784999;28;20113;-81
2022/03/14 07:44:51;;;;;;;0.73;0.70;;;;;;;-148.93;100.00;62180.91;20815326;28;20045;-82
2022/03/14 07:54:53;;;;;;;0.68;0.68;;;;;;;-148.93;100.00;62180.91;20816440;28;20053;-81
2022/03/14 08:04:55;;;;;;;1.55;0.80;;;;;;;-148.93;100.00;62180.91;20815131;28;20060;-82
2022/03/14 08:14:56;;;;;;;0.95;0.60;;;;;;;-148.93;100.00;62180.91;20833430;28;20053;-81
2022/03/14 08:24:58;;;;;;;0.90;0.70;;;;;;;-148.93;100.00;62180.91;20831903;28;20372;-81
2022/03/14 08:35:08;;;;;;;0.85;0.60;;;;;;;-148.93;100.00;62180.91;20815431;28;20487;-81
2022/03/14 08:45:15;;;;;;;1.38;0.60;;;;;;;-148.93;100.00;62180.91;20830875;28;20046;-81
2022/03/14 08:55:17;;;;;;;1.52;1.08;;;;;;;-148.93;100.00;62180.91;20812883;28;20065;-82
2022/03/14 09:05:19;;;;;;;0.70;0.57;;;;;;;-148.93;100.00;62180.91;20830059;28;20053;-81
2022/03/14 09:15:21;;;;;;;0.85;0.60;;;;;;;-148.93;100.00;62180.91;20795409;28;20049;-82
2022/03/14 09:25:23;;;;;;;1.30;0.73;;;;;;;-148.93;100.00;62180.91;20827665;28;20049;-82
2022/03/14 09:35:25;;;;;;;0.50;0.50;;;;;;;-148.93;100.00;62180.91;20827076;28;20041;-81
2022/03/14 09:45:27;;;;;;;1.27;0.80;;;;;;;-148.93;100.00;62180.91;20807837;28;20407;-82
2022/03/14 09:55:30;;;;;;;1.27;0.93;;;;;;;-148.93;100.00;62180.91;20825570;28;20497;-82
2022/03/14 10:05:32;;;;;;;0.90;0.80;;;;;;;-148.93;100.00;62180.91;20791164;28;20136;-82
2022/03/14 10:15:37;;;;;;;1.45;0.73;;;;;;;-148.93;100.00;62180.91;20790878;28;20061;-82
2022/03/14 10:25:42;;;;;;;1.02;0.75;;;;;;;-148.93;100.00;62180.91;20823387;28;20096;-82
2022/03/14 10:35:44;;;;;;;1.05;0.80;;;;;;;-148.93;100.00;62180.91;20823409;28;20061;-82
2022/03/14 10:45:46;;;;;;;1.23;0.80;;;;;;;-148.93;100.00;62180.91;20788798;28;20046;-82
2022/03/14 10:55:49;;;;;;;1.17;0.80;;;;;;;-148.93;100.00;62180.91;20812691;28;20037;-84
2022/03/14 11:05:53;;;;;;;0.95;0.77;;;;;;;-148.93;100.00;62180.91;20820973;28;20049;-80
2022/03/14 11:15:56;;;;;;;2.75;1.00;;;;;;;-148.93;100.00;62180.91;20819416;28;20088;-81
2022/03/14 11:25:59;;;;;;;1.02;0.90;;;;;;;-148.93;100.00;62180.91;20803356;28;20058;-80
2022/03/14 11:36:03;;;;;;;0.70;0.70;;;;;;;-148.93;100.00;62180.91;20819038;28;20662;-80
2022/03/14 11:46:08;;;;;;;0.70;0.63;;;;;;;-148.93;100.00;62180.91;20835547;28;20372;-82
2022/03/14 11:56:10;;;;;;;1.20;0.57;;;;;;;-148.93;100.00;62180.91;20817212;28;20045;-83
2022/03/14 12:06:12;;;;;;;0.70;0.50;;;;;;;-148.93;100.00;62180.91;20816127;28;20060;-82
2022/03/14 12:16:40;;;;;;;0.60;0.60;;;;;;;-148.93;100.00;62180.91;20799431;28;20049;-82
2022/03/14 12:26:45;;;;;;;1.48;0.70;;;;;;;-148.93;100.00;62180.91;20815778;28;20136;-82
2022/03/14 12:36:47;;;;;;;1.33;0.52;;;;;;;-148.93;100.00;62180.91;20814125;28;20049;-82
2022/03/14 12:46:52;;;;;;;1.05;0.80;;;;;;;-148.93;100.00;62180.91;20781153;28;20057;-82
2022/03/14 12:56:57;;;;;;;1.57;0.70;;;;;;;-148.93;100.00;62180.91;20812747;28;20590;-82
2022/03/14 13:06:59;;;;;;;0.80;0.70;;;;;;;-148.93;100.00;62180.91;20811742;28;20060;-82
2022/03/14 13:17:25;;;;;;;1.00;0.70;;;;;;;-148.93;100.00;62180.91;20813590;28;20063;-82
2022/03/14 13:27:27;;;;;;;1.60;0.73;;;;;;;-148.93;100.00;62180.91;20816476;28;20053;-81
2022/03/14 13:37:29;;;;;;;1.58;0.88;;;;;;;-148.93;100.00;62180.91;20810526;28;20132;-82
2022/03/14 13:47:31;;;;;;;1.13;0.73;;;;;;;-148.93;100.00;62180.91;20826371;28;20419;-81
2022/03/14 13:57:33;;;;;;;1.38;0.80;;;;;;;-148.93;100.00;62180.91;20825631;28;20075;-81
2022/03/14 14:07:35;;;;;;;1.83;0.80;;;;;;;-148.93;100.00;62180.91;20807083;28;20049;-81
2022/03/14 14:17:44;;;;;;;1.35;1.13;;;;;;;-148.93;100.00;62180.91;20790828;28;20045;-81
2022/03/14 14:28:02;;;;;;;0.98;0.75;;;;;;;-148.93;100.00;62180.91;20823092;28;20140;-82
2022/03/14 14:38:05;;;;;;;1.20;0.90;;;;;;;-148.93;100.00;62180.91;20823212;28;20088;-81
2022/03/14 14:48:08;;;;;;;2.28;0.90;;;;;;;-148.93;100.00;62180.91;20805223;28;20096;-82
2022/03/14 14:58:10;;;;;;;1.38;0.90;;;;;;;-148.93;100.00;62180.91;20805021;28;20055;-82
2022/03/14 15:08:16;;;;;;;1.55;0.80;;;;;;;-148.93;100.00;62180.91;20789300;28;20048;-82
2022/03/14 15:18:18;;;;;;;2.10;1.20;;;;;;;-148.93;100.00;62180.91;20803993;28;20127;-82
2022/03/14 15:28:20;;;;;;;1.20;0.90;;;;;;;-148.93;100.00;62180.91;20803640;28;20057;-82
2022/03/14 15:38:22;;;;;;;1.50;0.98;;;;;;;-148.93;100.00;62180.91;20821359;28;20053;-82
2022/03/14 15:48:27;;;;;;;1.97;1.17;;;;;;;-148.93;100.00;62180.91;20835673;28;20049;-81
2022/03/14 15:58:29;;;;;;;2.30;1.00;;;;;;;-148.93;100.00;62180.91;20873914;28;20055;-83
2022/03/14 16:08:31;;;;;;;2.30;1.08;;;;;;;-148.93;100.00;62180.91;20841599;28;20053;-80
2022/03/14 16:18:34;;;;;;;1.52;1.00;;;;;;;-148.93;100.00;62180.91;20842099;28;20083;-80
2022/03/14 16:28:36;;;;;;;1.92;1.10;;;;;;;-148.93;100.00;62180.91;20799252;28;20055;-80
2022/03/14 16:38:38;;;;;;;1.42;1.00;;;;;;;-148.93;100.00;62180.91;20832248;28;20045;-80
2022/03/14 16:48:40;;;;;;;1.20;0.85;;;;;;;-148.93;100.00;62180.91;20813593;28;20049;-80
2022/03/14 16:58:41;;;;;;;2.03;1.00;;;;;;;-148.93;100.00;62180.91;20830922;28;20450;-80
2022/03/14 17:08:43;;;;;;;1.67;0.90;;;;;;;-148.93;100.00;62180.91;20828294;28;20064;-80
2022/03/14 17:18:45;;;;;;;1.48;1.08;;;;;;;-148.93;100.00;62180.91;20828446;28;20518;-80
2022/03/14 17:28:47;;;;;;;2.75;1.15;;;;;;;-148.93;100.00;62180.91;20810064;28;20144;-80
2022/03/14 17:38:50;;;;;;;2.15;0.90;;;;;;;-148.93;100.00;62180.91;20827093;28;20045;-80
2022/03/14 17:48:52;;;;;;;1.73;0.88;;;;;;;-148.93;100.00;62180.91;20824900;28;20105;-80
2022/03/14 17:58:54;;;;;;;1.30;1.00;;;;;;;-148.93;100.00;62180.91;20825588;28;20050;-80
2022/03/14 18:09:00;;;;;;;1.58;0.93;;;;;;;-148.93;100.00;62180.91;20807505;28;20128;-80
2022/03/14 18:19:02;;;;;;;1.20;0.90;;;;;;;-148.93;100.00;62180.91;20824357;28;20621;-80
2022/03/14 18:29:04;;;;;;;1.48;1.05;;;;;;;-148.93;100.00;62180.91;20823280;28;20052;-80
2022/03/14 18:39:10;;;;;;;1.92;1.02;;;;;;;-148.93;100.00;62180.91;20789654;28;20053;-80
2022/03/14 18:49:36;;;;;;;2.42;1.08;;;;;;;-148.93;100.00;62180.91;20795609;28;20103;-80
2022/03/14 18:59:39;;;;;;;2.42;1.00;;;;;;;-148.93;100.00;62180.91;20822161;28;20045;-80
2022/03/14 19:09:41;;;;;;;2.90;1.08;;;;;;;-148.93;100.00;62180.91;20821073;28;20124;-82
2022/03/14 19:19:43;;;;;;;2.50;1.00;;;;;;;-148.93;100.00;62180.91;20816437;28;20055;-80
2022/03/14 19:29:48;;;;;;;1.50;0.82;;;;;;;-148.93;100.00;62180.91;20808599;28;20056;-80
2022/03/14 19:39:50;;;;;;;1.60;1.00;;;;;;;-148.93;100.00;62180.91;20749943;28;20049;-78
2022/03/14 19:49:52;;;;;;;2.05;1.23;;;;;;;-148.93;100.00;62180.91;20738361;28;20097;-81
2022/03/14 19:59:55;;;;;;;1.65;0.90;;;;;;;-148.93;100.00;62180.91;20716308;28;20136;-79
2022/03/14 20:09:57;;;;;;;1.40;0.90;;;;;;;-148.93;100.00;62180.91;20734365;28;20057;-79
2022/03/14 20:19:59;;;;;;;1.23;0.95;;;;;;;-148.93;100.00;62180.91;20754509;28;20503;-79
2022/03/14 20:30:01;;;;;;;1.50;0.93;;;;;;;-148.93;100.00;62180.91;20793460;28;20141;-79
2022/03/14 20:40:04;;;;;;;2.05;1.00;;;;;;;-148.93;100.00;62180.91;20731986;28;20049;-79
2022/03/14 20:50:06;;;;;;;1.75;0.90;;;;;;;-148.93;100.00;62180.91;20778924;28;20080;-79
2022/03/14 21:00:10;;;;;;;1.98;0.90;;;;;;;-148.93;100.00;62180.91;20829205;28;20154;-79
2022/03/14 21:10:12;;;;;;;1.20;0.70;;;;;;;-148.93;100.00;62180.91;20824468;28;20080;-79
2022/03/14 21:20:14;;;;;;;1.10;0.90;;;;;;;-148.93;100.00;62180.91;20832082;28;20087;-79
2022/03/14 21:30:16;;;;;;;1.20;1.00;;;;;;;-148.93;100.00;62180.91;20891162;28;20542;-79
2022/03/14 21:40:20;;;;;;;1.80;1.20;;;;;;;-148.93;100.00;62180.91;20907715;28;20072;-78
2022/03/14 21:50:22;;;;;;;1.33;0.90;;;;;;;-148.93;100.00;62180.91;20838918;28;20144;-79
2022/03/14 22:00:24;;;;;;;1.98;0.90;;;;;;;-148.93;100.00;62180.91;20804268;28;20080;-79
2022/03/14 22:10:26;;;;;;;1.65;1.02;;;;;;;-148.93;100.00;62180.91;20807114;28;20037;-79
2022/03/14 22:20:28;;;;;;;1.60;0.90;;;;;;;-148.93;100.00;62180.91;20819337;28;20045;-79
2022/03/14 22:30:30;;;;;;;2.15;0.98;;;;;;;-148.93;100.00;62180.91;20762230;28;20064;-79
2022/03/14 22:40:32;;;;;;;1.60;0.80;;;;;;;-148.93;100.00;62180.91;20741625;28;20169;-79
2022/03/14 22:50:34;;;;;;;1.25;0.75;;;;;;;-148.93;100.00;62180.91;20746847;28;20535;-79
2022/03/14 23:00:43;;;;;;;0.73;0.70;;;;;;;-148.93;100.00;62180.91;20817940;28;20049;-79
2022/03/14 23:21:08;;;;;;;0.82;0.65;;;;;;;-148.93;100.00;62180.91;20837223;28;20483;-78
2022/03/14 23:31:10;;;;;;;1.45;1.00;;;;;;;-148.93;100.00;62180.91;20819525;28;20482;-79
2022/03/14 23:41:12;;;;;;;1.67;0.82;;;;;;;-148.93;100.00;62180.91;20805750;28;20048;-79
2022/03/14 23:51:14;;;;;;;1.60;0.90;;;;;;;-148.93;100.00;62180.91;20801206;28;20057;-79
